الصفحة الرئيسية
METAR-TAF:

METAR-TAF

مطار :

ماناغوا, نيكاراغوا

دائرة عرض: 12-09N, خط طول: 086-10W, ارتفاع: 50 متر

مراقبة الطقس الحالي

تاريخ ووقت الإصدار 13 دقيقة قبل الساعة 00:00UTC
ريح 6 عقدة من الشمال الشرقي
درجة الحرارة 28°درجة مئوية
الرطوبة 70%
ضغط 1011 hPa
الرؤية 10 كم أو أكثر
غيوم قليلة على ارتفاع 2800 قدم
غيوم متفرقة على ارتفاع 30000 قدم

METAR: MNMG 200000Z 04006KT 9999 FEW028 SCT300 28/22 Q1010 A2984 2AC070 NOSIG

زمن: 18:13 (00:13 UTC)

توقعات

تاريخ ووقت الإصدار 3ساعات و 28 دقيقة قبل الساعة 20:45UTC
التوقعات صالحة من20 الساعة 00 UTC إلى 20 الساعة 24 UTC
ريح 10 عقدة من الشرق/الجنوب الشرقي
الرؤية 10 كم أو أكثر
غيوم متفرقة على ارتفاع 2000 قدم
مؤقت
من 20 الساعة 04 UTC إلى 21 الساعة 13 UTC
ريح 6 عقدة من الجنوب الشرقي
غيوم قليلة على ارتفاع 2000 قدم
غيوم متفرقة على ارتفاع 8000 قدم
أصبح
من 20 الساعة 14 UTC إلى 20 الساعة 16 UTC
ريح 16 عقدة من الشرق

TAF: MNMG 192045Z 2000/2024 11010KT 9999 SCT020 TEMPO 2004/2113 14006KT FEW020 SCT080 BECMG 2014/2016 09016KT

أرصاد الطقس والتوقعات من أكثر من 4000 مطار (تقارير الطقس للمطار METAR والتنبؤ بالطقس بالمطارTAF).

المحطات المتاحة هي النقط الصفراء والحمراء على الخريطة.

حرك المؤشر فوق النقطة لمعرفة اسم المحطة.

ثم انقر لمعرفة أرصاد وتوقعات الطقس.

لتغيير الخارطة: اضغط على الأزرار الخضراء مع رمز الصليب الأسود للتكبير. على الزر الأخضر مع شرطة للتصغير، أو على الأسهم الخضراء للخرائط المجاورة.


METAR-TAF: